Time;durP1;ratioP1;P1;durP2;ratioP2;P2;SDS_P1;SDS_P2;PMS_P1;PMS_P2;Temp;Humidity;BMP_temperature;BMP_pressure;BME280_temperature;BME280_humidity;BME280_pressure;Samples;Min_cycle;Max_cycle;Signal;HPM_P1;HPM_P2
2022/04/29 00:00:14;;;;;;;7.22;2.80;;;;;;;;;;7401207;19;20018;-79
2022/04/29 00:02:40;;;;;;;6.50;3.67;;;;;;;;;;7405717;19;20018;-79
2022/04/29 00:05:08;;;;;;;9.13;3.97;;;;;;;;;;7402258;19;20010;-79
2022/04/29 00:07:34;;;;;;;6.47;2.63;;;;;;;;;;7405022;19;20488;-79
2022/04/29 00:09:59;;;;;;;4.00;2.50;;;;;;;;;;7405669;19;20019;-79
2022/04/29 00:12:25;;;;;;;5.20;2.72;;;;;;;;;;7406655;19;20010;-79
2022/04/29 00:14:51;;;;;;;5.43;3.10;;;;;;;;;;7403726;19;20422;-79
2022/04/29 00:17:16;;;;;;;7.18;2.97;;;;;;;;;;7405833;19;20475;-79
2022/04/29 00:19:43;;;;;;;4.43;2.92;;;;;;;;;;7404129;19;20456;-79
2022/04/29 00:22:08;;;;;;;3.75;2.72;;;;;;;;;;7406238;19;20009;-79
2022/04/29 00:24:33;;;;;;;5.68;3.03;;;;;;;;;;7401494;19;20018;-79
2022/04/29 00:26:59;;;;;;;6.20;2.95;;;;;;;;;;7403613;19;20006;-79
2022/04/29 00:29:24;;;;;;;4.28;2.75;;;;;;;;;;7404386;19;20043;-79
2022/04/29 00:31:50;;;;;;;4.55;2.97;;;;;;;;;;7403063;19;20114;-79
2022/04/29 00:34:15;;;;;;;3.45;2.13;;;;;;;;;;7405628;19;20011;-79
2022/04/29 00:36:41;;;;;;;3.28;2.35;;;;;;;;;;7404764;19;20033;-79
2022/04/29 00:39:06;;;;;;;5.40;2.40;;;;;;;;;;7401073;19;20018;-79
2022/04/29 00:41:31;;;;;;;3.22;2.28;;;;;;;;;;7398142;19;20010;-79
2022/04/29 00:44:09;;;;;;;4.20;2.40;;;;;;;;;;7401283;19;20463;-79
2022/04/29 00:46:41;;;;;;;8.70;2.85;;;;;;;;;;7401467;19;20006;-79
2022/04/29 00:49:08;;;;;;;5.47;2.40;;;;;;;;;;7402751;19;20014;-79
2022/04/29 00:51:34;;;;;;;4.60;2.50;;;;;;;;;;7402874;19;20021;-79
2022/04/29 00:54:02;;;;;;;3.83;2.33;;;;;;;;;;7401449;19;20018;-80
2022/04/29 00:56:29;;;;;;;2.72;2.00;;;;;;;;;;7401473;19;20011;-79
2022/04/29 00:59:02;;;;;;;5.13;2.50;;;;;;;;;;7401134;19;20040;-79
2022/04/29 01:01:31;;;;;;;3.33;1.92;;;;;;;;;;7400008;19;20038;-79
2022/04/29 01:03:58;;;;;;;4.00;2.10;;;;;;;;;;7402848;19;20014;-79
2022/04/29 01:06:25;;;;;;;4.40;2.08;;;;;;;;;;7400788;19;20108;-79
2022/04/29 01:08:51;;;;;;;3.25;2.45;;;;;;;;;;7401940;19;20018;-79
2022/04/29 01:11:22;;;;;;;4.43;2.45;;;;;;;;;;7401211;19;20021;-79
2022/04/29 01:13:49;;;;;;;2.67;2.03;;;;;;;;;;7399250;19;20055;-79
2022/04/29 01:16:15;;;;;;;4.18;2.20;;;;;;;;;;7401438;19;20010;-78
2022/04/29 01:18:41;;;;;;;3.35;2.38;;;;;;;;;;7405090;19;20421;-78
2022/04/29 01:21:06;;;;;;;4.05;2.50;;;;;;;;;;7400275;19;20022;-78
2022/04/29 01:23:33;;;;;;;4.10;2.55;;;;;;;;;;7402501;19;20615;-78
2022/04/29 01:25:58;;;;;;;3.83;2.35;;;;;;;;;;7402269;19;20012;-78
2022/04/29 01:28:25;;;;;;;3.33;2.08;;;;;;;;;;7403615;19;20520;-78
2022/04/29 01:30:51;;;;;;;4.03;2.20;;;;;;;;;;7398213;19;20062;-79
2022/04/29 01:33:18;;;;;;;4.60;2.10;;;;;;;;;;7401614;19;20014;-79
2022/04/29 01:35:44;;;;;;;4.40;2.50;;;;;;;;;;7401060;19;20035;-78
2022/04/29 01:38:09;;;;;;;3.20;2.13;;;;;;;;;;7402130;19;20587;-78
2022/04/29 01:40:35;;;;;;;3.17;2.20;;;;;;;;;;7400839;19;20010;-78
2022/04/29 01:43:00;;;;;;;2.70;2.00;;;;;;;;;;7402975;19;20002;-79
2022/04/29 01:45:25;;;;;;;3.95;2.45;;;;;;;;;;7399332;19;20011;-78
2022/04/29 01:47:51;;;;;;;3.88;2.38;;;;;;;;;;7398370;19;20010;-78
2022/04/29 01:50:16;;;;;;;3.20;2.13;;;;;;;;;;7397556;19;20022;-79
2022/04/29 01:52:41;;;;;;;3.25;2.30;;;;;;;;;;7401197;19;20005;-79
2022/04/29 01:55:07;;;;;;;3.80;2.72;;;;;;;;;;7398880;19;20003;-78
2022/04/29 01:57:32;;;;;;;2.72;2.00;;;;;;;;;;7398866;19;20472;-79
2022/04/29 01:59:58;;;;;;;3.83;2.42;;;;;;;;;;7401635;19;20097;-79
2022/04/29 02:02:23;;;;;;;3.40;2.40;;;;;;;;;;7400255;19;20032;-79
2022/04/29 02:04:48;;;;;;;2.67;2.03;;;;;;;;;;7396892;19;20014;-79
2022/04/29 02:07:14;;;;;;;3.08;2.35;;;;;;;;;;7401261;19;20429;-79
2022/04/29 02:09:39;;;;;;;3.28;2.00;;;;;;;;;;7402008;19;20126;-78
2022/04/29 02:12:05;;;;;;;2.65;2.00;;;;;;;;;;7401611;19;20014;-79
2022/04/29 02:14:39;;;;;;;4.07;2.38;;;;;;;;;;7401321;19;20034;-78
2022/04/29 02:17:06;;;;;;;4.50;2.03;;;;;;;;;;7403917;19;20011;-79
2022/04/29 02:19:32;;;;;;;2.97;2.30;;;;;;;;;;7403380;19;20006;-79
2022/04/29 02:21:57;;;;;;;3.38;1.83;;;;;;;;;;7402057;19;20082;-79
2022/04/29 02:24:23;;;;;;;3.00;1.90;;;;;;;;;;7399186;19;20010;-79
2022/04/29 02:26:48;;;;;;;4.47;2.47;;;;;;;;;;7400551;19;20011;-79
2022/04/29 02:29:13;;;;;;;3.03;1.77;;;;;;;;;;7398377;19;20011;-78
2022/04/29 02:31:39;;;;;;;3.47;2.13;;;;;;;;;;7401434;19;20010;-79
2022/04/29 02:34:05;;;;;;;4.95;2.50;;;;;;;;;;7399732;19;20028;-79
2022/04/29 02:36:31;;;;;;;3.53;2.20;;;;;;;;;;7400894;19;20027;-78
2022/04/29 02:38:57;;;;;;;3.47;2.30;;;;;;;;;;7401058;19;20002;-79
2022/04/29 02:41:22;;;;;;;2.60;1.95;;;;;;;;;;7400969;19;20122;-78
2022/04/29 02:43:48;;;;;;;4.10;2.30;;;;;;;;;;7399576;19;20035;-78
2022/04/29 02:46:13;;;;;;;4.03;2.33;;;;;;;;;;7403526;19;20018;-78
2022/04/29 02:48:38;;;;;;;2.97;1.90;;;;;;;;;;7398003;19;20007;-79
2022/04/29 02:51:04;;;;;;;4.43;2.45;;;;;;;;;;7400258;19;20016;-79
2022/04/29 02:53:31;;;;;;;9.95;2.13;;;;;;;;;;7400543;19;20037;-79
2022/04/29 02:55:56;;;;;;;4.30;2.00;;;;;;;;;;7401348;19;20014;-78
2022/04/29 02:58:21;;;;;;;3.60;1.95;;;;;;;;;;7390941;19;20394;-78
2022/04/29 03:00:47;;;;;;;3.40;1.90;;;;;;;;;;7391687;19;20387;-78
2022/04/29 03:03:12;;;;;;;3.13;1.85;;;;;;;;;;7401728;19;20011;-78
2022/04/29 03:05:38;;;;;;;2.58;1.90;;;;;;;;;;7398415;19;20034;-77
2022/04/29 03:08:04;;;;;;;2.90;2.13;;;;;;;;;;7398965;19;20052;-78
2022/04/29 03:10:29;;;;;;;3.35;2.25;;;;;;;;;;7393404;19;20010;-78
2022/04/29 03:12:55;;;;;;;3.72;2.08;;;;;;;;;;7401492;19;20347;-78
2022/04/29 03:15:20;;;;;;;3.70;2.22;;;;;;;;;;7402001;19;20438;-80
2022/04/29 03:20:35;;;;;;;;;;;;;;;;;;7405267;19;20646;-77
2022/04/29 03:23:00;;;;;;;2.83;1.02;;;;;;;;;;7396718;19;20402;-78
2022/04/29 03:25:26;;;;;;;3.95;1.75;;;;;;;;;;7393030;19;20006;-77
2022/04/29 03:27:51;;;;;;;2.25;1.58;;;;;;;;;;7394852;19;20010;-77
2022/04/29 03:30:16;;;;;;;3.53;2.22;;;;;;;;;;7390775;19;20078;-77
2022/04/29 03:32:52;;;;;;;4.38;2.08;;;;;;;;;;7391423;19;20014;-81
2022/04/29 03:35:18;;;;;;;2.78;1.90;;;;;;;;;;7393079;19;20014;-77
2022/04/29 03:37:43;;;;;;;2.55;1.90;;;;;;;;;;7394415;19;20006;-78
2022/04/29 03:40:09;;;;;;;3.60;2.20;;;;;;;;;;7390235;19;20340;-77
2022/04/29 03:42:34;;;;;;;2.97;1.83;;;;;;;;;;7395751;19;20006;-77
2022/04/29 03:44:59;;;;;;;2.83;1.92;;;;;;;;;;7393007;19;20014;-80
2022/04/29 03:47:25;;;;;;;2.08;1.35;;;;;;;;;;7393570;19;20010;-77
2022/04/29 03:49:51;;;;;;;2.50;1.63;;;;;;;;;;7392169;19;20018;-76
2022/04/29 03:52:16;;;;;;;3.25;1.95;;;;;;;;;;7392699;19;20517;-79
2022/04/29 03:54:41;;;;;;;2.17;1.65;;;;;;;;;;7393000;19;20026;-77
2022/04/29 03:57:07;;;;;;;3.92;1.95;;;;;;;;;;7394831;19;20017;-80
2022/04/29 03:59:33;;;;;;;2.75;1.80;;;;;;;;;;7394022;19;20024;-77
2022/04/29 04:01:58;;;;;;;2.88;1.83;;;;;;;;;;7392646;19;20007;-79
2022/04/29 04:04:23;;;;;;;3.50;1.90;;;;;;;;;;7392432;19;20011;-79
2022/04/29 04:06:51;;;;;;;4.28;1.88;;;;;;;;;;7393769;19;20329;-79
2022/04/29 04:09:18;;;;;;;2.13;1.55;;;;;;;;;;7393487;19;20126;-80
2022/04/29 04:11:44;;;;;;;3.13;1.77;;;;;;;;;;7394845;19;20452;-79
2022/04/29 04:14:09;;;;;;;2.17;1.38;;;;;;;;;;7385670;19;20022;-78
2022/04/29 04:16:36;;;;;;;3.65;2.22;;;;;;;;;;7392195;19;20015;-79
2022/04/29 04:19:02;;;;;;;4.03;1.92;;;;;;;;;;7394477;19;20018;-79
2022/04/29 04:21:28;;;;;;;3.75;2.40;;;;;;;;;;7392138;19;20018;-79
2022/04/29 04:23:54;;;;;;;7.78;2.40;;;;;;;;;;7390789;19;20025;-79
2022/04/29 04:26:19;;;;;;;3.70;2.10;;;;;;;;;;7393627;19;20006;-76
2022/04/29 04:28:45;;;;;;;7.25;2.55;;;;;;;;;;7391140;19;20018;-77
2022/04/29 04:31:10;;;;;;;2.95;2.13;;;;;;;;;;7388469;19;20039;-79
2022/04/29 04:33:36;;;;;;;3.85;2.33;;;;;;;;;;7394450;19;20010;-77
2022/04/29 04:36:01;;;;;;;3.75;2.40;;;;;;;;;;7390630;19;20070;-77
2022/04/29 04:38:27;;;;;;;4.57;2.40;;;;;;;;;;7394400;19;20014;-78
2022/04/29 04:40:53;;;;;;;7.45;2.60;;;;;;;;;;7389825;19;20014;-78
2022/04/29 04:43:20;;;;;;;4.68;2.42;;;;;;;;;;7394980;19;20006;-78
2022/04/29 04:45:46;;;;;;;7.80;2.17;;;;;;;;;;7391932;19;20007;-78
2022/04/29 04:48:11;;;;;;;5.97;2.00;;;;;;;;;;7391025;19;20020;-77
2022/04/29 04:50:37;;;;;;;4.90;1.98;;;;;;;;;;7391800;19;20035;-77
2022/04/29 04:53:02;;;;;;;4.45;2.05;;;;;;;;;;7392788;19;20411;-77
2022/04/29 04:55:27;;;;;;;3.92;2.40;;;;;;;;;;7388070;19;20157;-77
2022/04/29 04:57:52;;;;;;;3.70;2.10;;;;;;;;;;7391434;19;20006;-76
2022/04/29 05:00:18;;;;;;;6.60;3.60;;;;;;;;;;7390792;19;20014;-77
2022/04/29 05:02:43;;;;;;;5.75;2.40;;;;;;;;;;7389291;19;20006;-77
2022/04/29 05:05:09;;;;;;;3.17;1.95;;;;;;;;;;7390835;19;20015;-78
2022/04/29 05:07:34;;;;;;;4.28;2.38;;;;;;;;;;7389519;19;20013;-79
2022/04/29 05:10:00;;;;;;;2.97;2.00;;;;;;;;;;7391226;19;20018;-77
2022/04/29 05:12:25;;;;;;;2.45;1.60;;;;;;;;;;7390917;19;20014;-76
2022/04/29 05:14:50;;;;;;;2.92;1.80;;;;;;;;;;7389507;19;20360;-77
2022/04/29 05:17:16;;;;;;;4.40;1.92;;;;;;;;;;7392761;19;20531;-78
2022/04/29 05:19:41;;;;;;;3.22;2.00;;;;;;;;;;7395634;19;20006;-79
2022/04/29 05:22:06;;;;;;;7.72;2.15;;;;;;;;;;7398147;19;20041;-78
2022/04/29 05:24:31;;;;;;;2.75;1.90;;;;;;;;;;7397391;19;20031;-78
2022/04/29 05:26:57;;;;;;;2.17;1.63;;;;;;;;;;7396189;19;20022;-78
2022/04/29 05:29:22;;;;;;;3.47;2.40;;;;;;;;;;7395867;19;20439;-78
2022/04/29 05:31:48;;;;;;;2.90;2.20;;;;;;;;;;7388414;19;20006;-79
2022/04/29 05:34:14;;;;;;;2.28;1.75;;;;;;;;;;7395234;19;20014;-80
2022/04/29 05:36:39;;;;;;;2.63;1.92;;;;;;;;;;7390202;19;20014;-79
2022/04/29 05:44:34;;;;;;;5.32;2.45;;;;;;;;;;7394307;19;20027;-80
2022/04/29 05:46:59;;;;;;;5.25;2.63;;;;;;;;;;7394906;19;20765;-78
2022/04/29 05:49:25;;;;;;;4.28;2.22;;;;;;;;;;7396249;19;20010;-80
2022/04/29 05:51:50;;;;;;;7.15;2.80;;;;;;;;;;7387157;19;20113;-79
2022/04/29 05:54:15;;;;;;;3.45;2.50;;;;;;;;;;7390823;19;20030;-80
2022/04/29 05:56:40;;;;;;;5.53;2.92;;;;;;;;;;7387096;19;20476;-79
2022/04/29 05:59:05;;;;;;;6.20;2.95;;;;;;;;;;7392522;19;20017;-81
2022/04/29 06:01:31;;;;;;;3.38;2.72;;;;;;;;;;7392698;19;20356;-78
2022/04/29 06:03:56;;;;;;;7.35;3.08;;;;;;;;;;7391507;19;20014;-80
2022/04/29 06:06:21;;;;;;;5.47;3.28;;;;;;;;;;7393382;19;20523;-78
2022/04/29 06:08:47;;;;;;;5.35;3.58;;;;;;;;;;7385669;19;20011;-77
2022/04/29 06:11:12;;;;;;;6.95;3.72;;;;;;;;;;7391802;19;20097;-81
2022/04/29 06:13:38;;;;;;;6.75;3.78;;;;;;;;;;7391596;19;20014;-81
2022/04/29 06:16:05;;;;;;;5.05;3.17;;;;;;;;;;7388124;19;20399;-79
2022/04/29 06:18:32;;;;;;;5.85;3.50;;;;;;;;;;7391020;19;20013;-80
2022/04/29 06:20:57;;;;;;;6.28;3.42;;;;;;;;;;7388283;19;20006;-78
2022/04/29 06:23:23;;;;;;;6.00;3.65;;;;;;;;;;7390223;19;20014;-78
2022/04/29 06:25:48;;;;;;;7.45;3.50;;;;;;;;;;7388265;19;20103;-78
2022/04/29 06:28:14;;;;;;;8.82;3.88;;;;;;;;;;7385095;19;20022;-77
2022/04/29 06:30:40;;;;;;;5.75;3.58;;;;;;;;;;7250380;19;2700109;-78
2022/04/29 06:33:05;;;;;;;5.75;3.75;;;;;;;;;;7391139;19;20021;-78
2022/04/29 06:35:30;;;;;;;5.80;3.85;;;;;;;;;;7386241;19;20007;-78
2022/04/29 06:37:56;;;;;;;5.85;4.05;;;;;;;;;;7408411;19;20010;-77
2022/04/29 06:40:21;;;;;;;6.47;3.85;;;;;;;;;;7429284;19;20011;-77
2022/04/29 06:42:47;;;;;;;6.05;3.60;;;;;;;;;;7430136;19;20006;-77
2022/04/29 06:45:16;;;;;;;6.75;4.60;;;;;;;;;;7429307;19;20016;-77
2022/04/29 06:47:41;;;;;;;5.00;3.85;;;;;;;;;;7424250;19;19999;-78
2022/04/29 06:50:09;;;;;;;5.47;3.42;;;;;;;;;;7402760;19;20109;-78
2022/04/29 06:52:34;;;;;;;5.13;3.88;;;;;;;;;;7398685;19;20027;-78
2022/04/29 06:54:59;;;;;;;7.60;3.78;;;;;;;;;;7397982;19;20006;-78
2022/04/29 06:57:25;;;;;;;5.05;3.92;;;;;;;;;;7398870;19;20010;-79
2022/04/29 06:59:50;;;;;;;7.68;3.90;;;;;;;;;;7400598;19;20040;-78
2022/04/29 07:02:16;;;;;;;6.35;3.90;;;;;;;;;;7398447;19;20381;-78
2022/04/29 07:04:42;;;;;;;7.65;4.10;;;;;;;;;;7396481;19;20018;-78
2022/04/29 07:07:11;;;;;;;7.00;4.10;;;;;;;;;;7398192;19;20007;-78
2022/04/29 07:09:38;;;;;;;8.20;4.22;;;;;;;;;;7398769;19;19998;-78
2022/04/29 07:12:05;;;;;;;8.23;4.65;;;;;;;;;;7399935;19;20070;-78
2022/04/29 07:14:30;;;;;;;5.47;3.85;;;;;;;;;;7396260;19;20005;-78
2022/04/29 07:16:55;;;;;;;6.55;4.22;;;;;;;;;;7400063;19;20010;-78
2022/04/29 07:19:20;;;;;;;5.38;3.83;;;;;;;;;;7405608;19;20042;-81
2022/04/29 07:21:46;;;;;;;5.13;3.85;;;;;;;;;;7400327;19;20035;-78
2022/04/29 07:24:12;;;;;;;6.13;3.70;;;;;;;;;;7403430;19;20018;-78
2022/04/29 07:26:39;;;;;;;6.05;4.10;;;;;;;;;;7398575;19;20023;-78
2022/04/29 07:29:05;;;;;;;4.78;3.47;;;;;;;;;;7397639;19;20062;-78
2022/04/29 07:31:30;;;;;;;6.93;3.75;;;;;;;;;;7397045;19;20651;-78
2022/04/29 07:33:55;;;;;;;5.55;3.72;;;;;;;;;;7396873;19;20046;-78
2022/04/29 07:41:48;;;;;;;5.15;3.13;;;;;;;;;;7399522;19;20016;-78
2022/04/29 07:44:15;;;;;;;5.03;3.42;;;;;;;;;;7399997;19;20341;-78
2022/04/29 07:46:43;;;;;;;4.85;2.97;;;;;;;;;;7398818;19;20026;-78
2022/04/29 07:49:09;;;;;;;5.65;3.88;;;;;;;;;;7396886;19;20035;-78
2022/04/29 07:51:35;;;;;;;5.35;3.53;;;;;;;;;;7396294;19;20022;-78
2022/04/29 07:54:00;;;;;;;5.15;3.03;;;;;;;;;;7396070;19;20018;-78
2022/04/29 07:56:25;;;;;;;4.63;3.35;;;;;;;;;;7395319;19;20418;-78
2022/04/29 07:58:50;;;;;;;4.38;3.20;;;;;;;;;;7396619;19;20041;-78
2022/04/29 08:01:16;;;;;;;3.20;2.50;;;;;;;;;;7397482;19;20006;-79
2022/04/29 08:03:42;;;;;;;6.60;3.25;;;;;;;;;;7395359;19;20015;-78
2022/04/29 08:06:08;;;;;;;3.95;2.95;;;;;;;;;;7395372;19;20011;-78
2022/04/29 08:08:35;;;;;;;5.32;3.38;;;;;;;;;;7399236;19;20017;-78
2022/04/29 08:11:00;;;;;;;4.47;2.65;;;;;;;;;;7396709;19;20032;-78
2022/04/29 08:13:27;;;;;;;3.47;2.83;;;;;;;;;;7397291;19;20022;-78
2022/04/29 08:15:52;;;;;;;6.53;3.00;;;;;;;;;;7396588;19;20036;-78
2022/04/29 08:18:18;;;;;;;3.30;3.00;;;;;;;;;;7401867;19;20003;-78
2022/04/29 08:20:43;;;;;;;4.70;3.13;;;;;;;;;;7399036;19;20031;-78
2022/04/29 08:23:09;;;;;;;5.15;2.97;;;;;;;;;;7397667;19;20520;-78
2022/04/29 08:25:35;;;;;;;7.45;2.65;;;;;;;;;;7396037;19;20020;-79
2022/04/29 08:28:02;;;;;;;6.10;3.03;;;;;;;;;;7392572;19;20018;-78
2022/04/29 08:30:30;;;;;;;4.45;2.78;;;;;;;;;;7394795;19;20038;-79
2022/04/29 08:32:56;;;;;;;5.30;2.65;;;;;;;;;;7392859;19;20013;-79
2022/04/29 08:35:21;;;;;;;7.68;3.13;;;;;;;;;;7388422;19;20320;-80
2022/04/29 08:37:46;;;;;;;3.42;2.47;;;;;;;;;;7393744;19;20036;-81
2022/04/29 08:40:12;;;;;;;4.70;2.42;;;;;;;;;;7400612;19;20015;-81
2022/04/29 08:42:40;;;;;;;4.35;2.55;;;;;;;;;;7393965;19;20492;-82
2022/04/29 08:45:10;;;;;;;4.07;2.47;;;;;;;;;;7391566;19;20007;-81
2022/04/29 08:47:37;;;;;;;6.85;2.55;;;;;;;;;;7392634;19;20321;-81
2022/04/29 08:50:06;;;;;;;3.95;2.50;;;;;;;;;;7391109;19;20382;-81
2022/04/29 08:52:33;;;;;;;4.55;2.80;;;;;;;;;;7390729;19;20031;-81
2022/04/29 09:00:28;;;;;;;8.10;2.97;;;;;;;;;;7394333;19;20078;-82
2022/04/29 09:02:53;;;;;;;3.95;2.38;;;;;;;;;;7392420;19;20440;-81
2022/04/29 09:05:19;;;;;;;3.65;2.30;;;;;;;;;;7391306;19;20014;-80
2022/04/29 09:07:54;;;;;;;7.95;3.05;;;;;;;;;;7397155;19;20028;-79
2022/04/29 09:10:21;;;;;;;3.53;2.55;;;;;;;;;;7396419;19;20097;-80
2022/04/29 09:12:48;;;;;;;4.20;2.63;;;;;;;;;;7393205;19;20475;-80
2022/04/29 09:15:15;;;;;;;5.15;2.28;;;;;;;;;;7389267;19;20032;-79
2022/04/29 09:17:47;;;;;;;5.35;3.15;;;;;;;;;;7395289;19;20017;-81
2022/04/29 09:20:22;;;;;;;4.97;2.67;;;;;;;;;;7393468;19;20018;-80
2022/04/29 09:22:50;;;;;;;3.67;2.40;;;;;;;;;;7391786;19;20092;-80
2022/04/29 09:25:17;;;;;;;2.65;2.28;;;;;;;;;;7393584;19;20010;-79
2022/04/29 09:27:59;;;;;;;5.85;2.55;;;;;;;;;;7395638;19;20014;-80
2022/04/29 09:30:37;;;;;;;3.72;2.60;;;;;;;;;;7389448;19;20014;-80
2022/04/29 09:33:02;;;;;;;3.05;2.30;;;;;;;;;;7393061;19;20109;-80
2022/04/29 09:35:38;;;;;;;4.68;3.05;;;;;;;;;;7387264;19;20040;-80
2022/04/29 09:40:49;;;;;;;5.93;2.80;;;;;;;;;;7392640;19;20038;-80
2022/04/29 09:43:15;;;;;;;3.92;2.28;;;;;;;;;;7393570;19;20006;-79
2022/04/29 09:45:40;;;;;;;2.72;2.17;;;;;;;;;;7390641;19;20025;-80
2022/04/29 09:48:09;;;;;;;5.03;2.75;;;;;;;;;;7386120;19;20006;-80
2022/04/29 09:50:50;;;;;;;4.47;2.42;;;;;;;;;;7384701;19;20030;-79
2022/04/29 09:53:25;;;;;;;4.05;2.45;;;;;;;;;;7389508;19;20017;-80
2022/04/29 09:56:11;;;;;;;5.85;3.20;;;;;;;;;;7390550;19;20018;-81
2022/04/29 09:58:36;;;;;;;6.53;2.90;;;;;;;;;;7393210;19;20111;-81
2022/04/29 10:01:04;;;;;;;8.75;2.85;;;;;;;;;;7390435;19;20475;-80
2022/04/29 10:03:30;;;;;;;5.20;3.10;;;;;;;;;;7389237;19;20010;-80
2022/04/29 10:05:57;;;;;;;4.53;3.10;;;;;;;;;;7384090;19;20006;-80
2022/04/29 10:08:25;;;;;;;4.55;2.45;;;;;;;;;;7390632;19;20457;-80
2022/04/29 10:10:51;;;;;;;3.20;2.38;;;;;;;;;;7391478;19;20090;-81
2022/04/29 10:13:19;;;;;;;3.42;2.00;;;;;;;;;;7403772;19;20018;-81
2022/04/29 10:15:46;;;;;;;6.05;2.58;;;;;;;;;;7405209;19;20002;-80
2022/04/29 10:21:15;;;;;;;4.70;2.45;;;;;;;;;;7399374;19;20035;-79
2022/04/29 10:23:42;;;;;;;4.00;2.53;;;;;;;;;;7397035;19;20015;-80
2022/04/29 10:26:08;;;;;;;3.55;2.30;;;;;;;;;;7400849;19;20064;-79
2022/04/29 10:28:34;;;;;;;5.72;2.60;;;;;;;;;;7400910;19;20011;-80
2022/04/29 10:31:06;;;;;;;2.65;2.10;;;;;;;;;;7398595;19;20530;-80
2022/04/29 10:33:32;;;;;;;3.83;2.25;;;;;;;;;;7393465;19;20002;-78
2022/04/29 10:36:05;;;;;;;5.85;2.47;;;;;;;;;;7390134;19;20026;-79
2022/04/29 10:38:35;;;;;;;3.45;2.38;;;;;;;;;;7393690;19;20100;-79
2022/04/29 10:41:06;;;;;;;5.55;2.72;;;;;;;;;;7393332;19;20123;-81
2022/04/29 10:43:35;;;;;;;5.28;2.28;;;;;;;;;;7399689;19;20014;-80
2022/04/29 10:46:03;;;;;;;2.80;2.20;;;;;;;;;;7399035;19;20040;-80
2022/04/29 10:48:30;;;;;;;3.70;2.53;;;;;;;;;;7400266;19;20072;-80
2022/04/29 10:50:55;;;;;;;4.28;2.72;;;;;;;;;;7396829;19;20010;-81
2022/04/29 10:53:24;;;;;;;3.75;2.33;;;;;;;;;;7395893;19;20019;-81
2022/04/29 10:55:50;;;;;;;6.93;2.67;;;;;;;;;;7393055;19;20017;-80
2022/04/29 10:58:22;;;;;;;4.55;2.50;;;;;;;;;;7398542;19;20070;-80
2022/04/29 11:01:28;;;;;;;4.78;2.33;;;;;;;;;;7396993;19;20027;-80
2022/04/29 11:03:55;;;;;;;;;;;;;;;;;;7393472;19;20011;-79
2022/04/29 11:06:20;;;;;;;4.15;2.13;;;;;;;;;;7401559;19;20019;-80
2022/04/29 11:08:46;;;;;;;4.63;2.80;;;;;;;;;;7390576;19;20248;-82
2022/04/29 11:11:12;;;;;;;4.20;2.47;;;;;;;;;;7396581;19;20050;-80
2022/04/29 11:13:47;;;;;;;4.22;2.80;;;;;;;;;;7395925;19;20031;-82
2022/04/29 11:16:15;;;;;;;17.35;4.90;;;;;;;;;;7400958;19;19994;-79
2022/04/29 11:18:42;;;;;;;8.98;4.13;;;;;;;;;;7394355;19;20085;-80
2022/04/29 11:26:50;;;;;;;4.38;2.85;;;;;;;;;;7397553;19;20024;-80
2022/04/29 11:29:17;;;;;;;3.88;2.38;;;;;;;;;;7395070;19;20488;-81
2022/04/29 11:31:42;;;;;;;5.63;2.75;;;;;;;;;;7393742;19;20043;-80
2022/04/29 11:34:15;;;;;;;3.67;2.38;;;;;;;;;;7388113;19;20017;-81
2022/04/29 11:36:42;;;;;;;3.80;2.30;;;;;;;;;;7385925;19;20018;-78
2022/04/29 11:39:18;;;;;;;5.05;2.83;;;;;;;;;;7389677;19;20074;-78
2022/04/29 11:41:54;;;;;;;2.92;2.17;;;;;;;;;;7390713;19;20011;-78
2022/04/29 11:44:38;;;;;;;4.78;2.30;;;;;;;;;;7392909;19;20056;-84
2022/04/29 11:47:04;;;;;;;4.22;2.50;;;;;;;;;;7399308;19;20052;-84
2022/04/29 11:49:32;;;;;;;2.88;2.15;;;;;;;;;;7393160;19;21691;-84
2022/04/29 11:52:23;;;;;;;4.78;2.63;;;;;;;;;;7391345;19;20317;-82
2022/04/29 11:54:53;;;;;;;3.70;2.30;;;;;;;;;;7389982;19;20014;-81
2022/04/29 11:57:22;;;;;;;2.58;2.08;;;;;;;;;;7392025;19;20350;-79
2022/04/29 11:59:48;;;;;;;3.60;2.40;;;;;;;;;;7397574;19;20017;-80
2022/04/29 12:02:23;;;;;;;4.07;2.22;;;;;;;;;;7389802;19;20711;-79
2022/04/29 12:04:58;;;;;;;3.35;2.30;;;;;;;;;;7397125;19;20025;-79
2022/04/29 12:07:25;;;;;;;3.88;2.03;;;;;;;;;;7390459;19;20006;-81
2022/04/29 12:09:59;;;;;;;3.33;2.20;;;;;;;;;;7393654;19;20337;-81
2022/04/29 12:12:32;;;;;;;4.70;2.33;;;;;;;;;;7397075;19;20482;-82
2022/04/29 12:14:59;;;;;;;6.78;2.40;;;;;;;;;;7397491;19;20078;-83
2022/04/29 12:17:36;;;;;;;3.72;2.40;;;;;;;;;;7400318;19;20018;-81
2022/04/29 12:20:03;;;;;;;3.38;2.33;;;;;;;;;;7393066;19;20024;-79
2022/04/29 12:22:30;;;;;;;2.58;2.38;;;;;;;;;;7390670;19;20018;-78
2022/04/29 12:25:38;;;;;;;8.18;2.67;;;;;;;;;;7393333;19;20015;-79
2022/04/29 12:28:20;;;;;;;5.68;2.30;;;;;;;;;;7392286;19;20010;-79
2022/04/29 12:36:59;;;;;;;2.47;1.98;;;;;;;;;;7385505;19;20019;-78
2022/04/29 12:39:35;;;;;;;3.63;2.17;;;;;;;;;;7388401;19;20383;-78
2022/04/29 12:42:16;;;;;;;6.82;2.42;;;;;;;;;;7389953;19;20023;-78
2022/04/29 12:47:39;;;;;;;3.60;2.10;;;;;;;;;;7394293;19;20107;-77
2022/04/29 12:50:28;;;;;;;3.05;2.17;;;;;;;;;;7389416;19;20007;-77
2022/04/29 12:52:57;;;;;;;3.00;1.90;;;;;;;;;;7386021;19;20011;-78
2022/04/29 12:55:23;;;;;;;2.35;1.60;;;;;;;;;;7387365;19;20010;-78
2022/04/29 12:57:49;;;;;;;4.07;2.50;;;;;;;;;;7392542;19;19995;-78
2022/04/29 13:00:23;;;;;;;2.38;2.10;;;;;;;;;;7392605;19;20026;-77
2022/04/29 13:03:10;;;;;;;3.72;2.30;;;;;;;;;;7386927;19;20006;-81
2022/04/29 13:05:37;;;;;;;3.17;2.42;;;;;;;;;;7390001;19;20019;-78
2022/04/29 13:08:04;;;;;;;3.00;2.22;;;;;;;;;;7384720;19;20039;-78
2022/04/29 13:10:40;;;;;;;3.55;2.45;;;;;;;;;;7391271;19;20023;-78
2022/04/29 13:13:05;;;;;;;2.85;2.10;;;;;;;;;;7386597;19;20038;-78
2022/04/29 13:15:34;;;;;;;4.18;1.90;;;;;;;;;;7385926;19;20074;-77
2022/04/29 13:18:01;;;;;;;4.10;2.10;;;;;;;;;;7393037;19;20441;-78
2022/04/29 13:20:27;;;;;;;3.58;1.73;;;;;;;;;;7390793;19;20018;-77
2022/04/29 13:22:53;;;;;;;3.45;2.15;;;;;;;;;;7391851;19;20006;-78
2022/04/29 13:25:18;;;;;;;3.22;1.92;;;;;;;;;;7391403;19;20040;-78
2022/04/29 13:27:44;;;;;;;4.10;2.20;;;;;;;;;;7395012;19;20024;-77
2022/04/29 13:30:09;;;;;;;2.88;1.80;;;;;;;;;;7394066;19;20006;-77
2022/04/29 13:32:35;;;;;;;3.63;2.20;;;;;;;;;;7395437;19;20003;-77
2022/04/29 13:35:01;;;;;;;2.20;1.73;;;;;;;;;;7388397;19;20015;-77
2022/04/29 13:37:26;;;;;;;3.25;1.92;;;;;;;;;;7393936;19;20047;-77
2022/04/29 13:39:51;;;;;;;2.55;1.95;;;;;;;;;;7412660;19;20006;-77
2022/04/29 13:42:18;;;;;;;3.47;1.65;;;;;;;;;;7412241;19;20019;-77
2022/04/29 13:44:44;;;;;;;2.80;1.98;;;;;;;;;;7412418;19;20010;-79
2022/04/29 13:47:09;;;;;;;2.42;1.88;;;;;;;;;;7414240;19;20017;-77
2022/04/29 13:49:34;;;;;;;5.32;1.73;;;;;;;;;;7405531;19;20003;-77
2022/04/29 13:54:45;;;;;;;7.63;2.10;;;;;;;;;;7394778;19;20100;-78
2022/04/29 13:57:10;;;;;;;2.10;1.80;;;;;;;;;;7388669;19;20359;-77
2022/04/29 13:59:35;;;;;;;2.92;1.88;;;;;;;;;;7390078;19;20024;-77
2022/04/29 14:02:00;;;;;;;2.22;1.63;;;;;;;;;;7390564;19;20019;-78
2022/04/29 14:04:26;;;;;;;3.75;1.75;;;;;;;;;;7389531;19;19998;-78
2022/04/29 14:06:52;;;;;;;3.63;1.90;;;;;;;;;;7391420;19;20089;-77
2022/04/29 14:09:17;;;;;;;2.40;1.90;;;;;;;;;;7392506;19;20006;-77
2022/04/29 14:11:42;;;;;;;1.70;1.60;;;;;;;;;;7392579;19;20081;-77
2022/04/29 14:14:08;;;;;;;3.85;1.75;;;;;;;;;;7390190;19;20021;-77
2022/04/29 14:16:34;;;;;;;3.55;1.55;;;;;;;;;;7389193;19;20006;-79
2022/04/29 14:19:00;;;;;;;2.55;1.80;;;;;;;;;;7391938;19;20011;-77
2022/04/29 14:21:26;;;;;;;2.53;1.90;;;;;;;;;;7389566;19;20389;-77
2022/04/29 14:23:51;;;;;;;2.45;1.55;;;;;;;;;;7391897;19;20010;-79
2022/04/29 14:26:17;;;;;;;2.65;2.00;;;;;;;;;;7394747;19;20035;-79
2022/04/29 14:28:42;;;;;;;3.03;1.92;;;;;;;;;;7394788;19;20013;-79
2022/04/29 14:31:08;;;;;;;5.20;2.00;;;;;;;;;;7390651;19;20014;-79
2022/04/29 14:33:33;;;;;;;2.45;1.90;;;;;;;;;;7394571;19;20041;-77
2022/04/29 14:35:58;;;;;;;3.28;1.95;;;;;;;;;;7386939;19;20019;-77
2022/04/29 14:38:24;;;;;;;4.88;2.05;;;;;;;;;;7393428;19;20471;-78
2022/04/29 14:40:49;;;;;;;2.13;1.92;;;;;;;;;;7391991;19;20450;-78
2022/04/29 14:43:14;;;;;;;5.95;2.03;;;;;;;;;;7390763;19;20048;-78
2022/04/29 14:45:40;;;;;;;6.68;1.85;;;;;;;;;;7389604;19;20771;-78
2022/04/29 14:48:05;;;;;;;5.75;2.10;;;;;;;;;;7390006;19;20014;-77
2022/04/29 14:50:31;;;;;;;3.97;1.98;;;;;;;;;;7389643;19;20006;-77
2022/04/29 14:52:56;;;;;;;2.25;1.77;;;;;;;;;;7386051;19;20606;-78
2022/04/29 14:55:22;;;;;;;3.95;1.98;;;;;;;;;;7391782;19;20073;-78
2022/04/29 14:57:48;;;;;;;2.70;2.10;;;;;;;;;;7393240;19;20006;-78
2022/04/29 15:00:15;;;;;;;3.50;2.38;;;;;;;;;;7398757;19;20436;-77
2022/04/29 15:02:40;;;;;;;6.18;2.10;;;;;;;;;;7393547;19;20558;-78
2022/04/29 15:05:06;;;;;;;2.53;1.95;;;;;;;;;;7392071;19;20035;-77
2022/04/29 15:07:32;;;;;;;2.13;1.70;;;;;;;;;;7401285;19;20014;-78
2022/04/29 15:15:37;;;;;;;7.50;2.20;;;;;;;;;;7403553;19;20023;-77
2022/04/29 15:18:11;;;;;;;4.22;2.13;;;;;;;;;;7398179;19;20342;-77
2022/04/29 15:20:38;;;;;;;3.17;2.27;;;;;;;;;;7398252;19;20035;-77
2022/04/29 15:23:06;;;;;;;3.30;2.15;;;;;;;;;;7399566;19;20013;-77
2022/04/29 15:25:33;;;;;;;4.85;2.08;;;;;;;;;;7393440;19;20414;-77
2022/04/29 15:27:58;;;;;;;3.17;2.00;;;;;;;;;;7391064;19;20566;-77
2022/04/29 15:30:36;;;;;;;3.17;1.90;;;;;;;;;;7395191;19;20010;-77